Time;durP1;ratioP1;P1;durP2;ratioP2;P2;SDS_P1;SDS_P2;PMS_P1;PMS_P2;Temp;Humidity;BMP_temperature;BMP_pressure;BME280_temperature;BME280_humidity;BME280_pressure;Samples;Min_cycle;Max_cycle;Signal;HPM_P1;HPM_P2
2022/10/31 00:00:03;;;;;;;;;;;;;;;21.34;55.81;101688.00;5134166;27;19931;-38
2022/10/31 00:02:28;;;;;;;;;;;;;;;21.35;55.84;101695.19;5130090;27;19961;-38
2022/10/31 00:04:54;;;;;;;;;;;;;;;21.33;55.79;101683.53;5132134;27;19938;-38
2022/10/31 00:07:19;;;;;;;;;;;;;;;21.32;55.85;101688.25;5133193;27;19982;-38
2022/10/31 00:09:45;;;;;;;;;;;;;;;21.33;55.88;101695.47;5132578;27;19931;-38
2022/10/31 00:12:11;;;;;;;;;;;;;;;21.34;55.72;101702.66;5131122;27;19927;-38
2022/10/31 00:14:36;;;;;;;;;;;;;;;21.32;55.74;101688.25;5132612;27;19927;-38
2022/10/31 00:17:02;;;;;;;;;;;;;;;21.33;55.95;101689.06;5129283;27;19932;-40
2022/10/31 00:19:27;;;;;;;;;;;;;;;21.33;55.84;101697.38;5138228;27;19923;-38
2022/10/31 00:21:53;;;;;;;;;;;;;;;21.34;55.89;101699.06;5131597;27;19927;-38
2022/10/31 00:24:18;;;;;;;;;;;;;;;21.34;55.80;101699.06;5135458;27;19978;-38
2022/10/31 00:26:44;;;;;;;;;;;;;;;21.33;55.83;101689.06;5128120;27;20321;-38
2022/10/31 00:29:09;;;;;;;;;;;;;;;21.33;55.84;101687.16;5135571;27;19930;-38
2022/10/31 00:31:35;;;;;;;;;;;;;;;21.34;55.83;101682.44;5131252;27;19935;-38
2022/10/31 00:34:02;;;;;;;;;;;;;;;21.34;55.73;101693.53;5130292;27;20290;-38
2022/10/31 00:36:28;;;;;;;;;;;;;;;21.33;55.80;101695.47;5136186;27;20378;-38
2022/10/31 00:38:53;;;;;;;;;;;;;;;21.34;55.83;101690.75;5132038;27;19991;-38
2022/10/31 00:41:19;;;;;;;;;;;;;;;21.34;55.91;101696.31;5133147;27;19924;-38
2022/10/31 00:43:44;;;;;;;;;;;;;;;21.34;55.75;101715.69;5138791;27;19942;-38
2022/10/31 00:46:10;;;;;;;;;;;;;;;21.34;55.79;101718.47;5111196;27;19935;-38
2022/10/31 00:48:36;;;;;;;;;;;;;;;21.33;55.66;101708.47;5121959;27;19923;-37
2022/10/31 00:51:01;;;;;;;;;;;;;;;21.34;55.89;101696.31;5133463;27;19976;-37
2022/10/31 00:53:27;;;;;;;;;;;;;;;21.33;55.79;101712.09;5138199;27;20299;-38
2022/10/31 00:55:53;;;;;;;;;;;;;;;21.33;55.72;101692.69;5133596;27;19927;-38
2022/10/31 00:58:18;;;;;;;;;;;;;;;21.33;55.85;101706.56;5131998;27;19931;-38
2022/10/31 01:00:44;;;;;;;;;;;;;;;21.33;55.76;101714.88;5133679;27;19924;-38
2022/10/31 01:03:14;;;;;;;;;;;;;;;21.34;55.74;101718.47;5133013;27;19928;-38
2022/10/31 01:05:40;;;;;;;;;;;;;;;21.34;55.80;101710.16;5132096;27;19924;-38
2022/10/31 01:08:05;;;;;;;;;;;;;;;21.34;55.83;101718.47;5134607;27;20317;-38
2022/10/31 01:10:31;;;;;;;;;;;;;;;21.34;55.72;101716.53;5133602;27;19923;-38
2022/10/31 01:12:56;;;;;;;;;;;;;;;21.33;55.85;101709.31;5135665;27;19938;-38
2022/10/31 01:15:22;;;;;;;;;;;;;;;21.33;55.92;101712.09;5132651;27;19924;-38
2022/10/31 01:17:48;;;;;;;;;;;;;;;21.33;55.87;101714.00;5134147;27;20046;-38
2022/10/31 01:20:14;;;;;;;;;;;;;;;21.34;55.81;101702.66;5138668;27;20426;-38
2022/10/31 01:22:39;;;;;;;;;;;;;;;21.34;55.85;101699.06;5133714;27;20574;-38
2022/10/31 01:25:05;;;;;;;;;;;;;;;21.33;55.79;101694.63;5135846;27;20403;-38
2022/10/31 01:27:31;;;;;;;;;;;;;;;21.33;55.82;101697.38;5115851;27;19931;-38
2022/10/31 01:29:57;;;;;;;;;;;;;;;21.32;55.84;101702.09;5116999;27;20382;-38
2022/10/31 01:32:22;;;;;;;;;;;;;;;21.33;55.77;101706.56;5134588;27;19923;-38
2022/10/31 01:34:48;;;;;;;;;;;;;;;21.33;55.77;101684.38;5137943;27;20365;-38
2022/10/31 01:37:13;;;;;;;;;;;;;;;21.33;55.76;101689.94;5135522;27;20439;-38
2022/10/31 01:39:39;;;;;;;;;;;;;;;21.34;55.86;101676.91;5138598;27;19930;-38
2022/10/31 01:42:05;;;;;;;;;;;;;;;21.34;55.72;101682.44;5139918;27;19930;-38
2022/10/31 01:47:25;;;;;;;;;;;;;;;21.34;55.75;101685.22;5171768;27;20400;-35
2022/10/31 01:49:51;;;;;;;;;;;;;;;21.34;55.45;101682.44;5131570;27;19966;-35
2022/10/31 01:52:22;;;;;;;;;;;;;;;21.35;55.79;101678.56;5147672;27;20371;-35
2022/10/31 01:54:50;;;;;;;;;;;;;;;21.33;55.80;101676.06;5146708;27;20365;-36
2022/10/31 01:57:16;;;;;;;;;;;;;;;21.34;55.79;101668.59;5150300;27;19982;-36
2022/10/31 01:59:43;;;;;;;;;;;;;;;21.34;55.77;101671.38;5151465;27;19930;-35
2022/10/31 02:02:09;;;;;;;;;;;;;;;21.34;55.85;101669.41;5145249;27;20433;-35
2022/10/31 02:04:34;;;;;;;;;;;;;;;21.34;55.87;101672.19;5146859;27;19923;-35
2022/10/31 02:07:02;;;;;;;;;;;;;;;21.33;55.83;101667.78;5127697;27;19973;-36
2022/10/31 02:09:28;;;;;;;;;;;;;;;21.35;55.68;101673.03;5128208;27;19974;-35
2022/10/31 02:11:54;;;;;;;;;;;;;;;21.33;55.77;101667.78;5129596;27;20381;-35
2022/10/31 02:14:22;;;;;;;;;;;;;;;21.34;55.77;101676.91;5146822;27;20002;-35
2022/10/31 02:16:47;;;;;;;;;;;;;;;21.34;55.85;101683.28;5128356;27;20359;-35
2022/10/31 02:19:14;;;;;;;;;;;;;;;21.34;55.89;101685.22;5145412;27;19923;-35
2022/10/31 02:21:43;;;;;;;;;;;;;;;21.33;55.80;101678.84;5148610;27;19970;-35
2022/10/31 02:24:15;;;;;;;;;;;;;;;21.35;55.76;101678.56;5149746;27;19963;-35
2022/10/31 02:26:45;;;;;;;;;;;;;;;21.34;55.85;101676.91;5146744;27;20489;-35
2022/10/31 02:29:31;;;;;;;;;;;;;;;21.33;55.72;101684.38;5145357;27;19959;-36
2022/10/31 02:32:00;;;;;;;;;;;;;;;21.34;55.79;101688.00;5137747;27;19969;-35
2022/10/31 02:34:45;;;;;;;;;;;;;;;21.34;55.73;101685.22;5129308;27;19981;-35
2022/10/31 02:37:14;;;;;;;;;;;;;;;21.34;55.67;101674.97;5135482;27;20002;-36
2022/10/31 02:39:45;;;;;;;;;;;;;;;21.34;55.83;101679.69;5131464;27;19983;-35
2022/10/31 02:42:15;;;;;;;;;;;;;;;21.34;55.75;101696.31;5147184;27;19963;-36
2022/10/31 02:44:45;;;;;;;;;;;;;;;21.34;55.75;101693.53;5143160;27;20417;-35
2022/10/31 02:47:12;;;;;;;;;;;;;;;21.33;55.77;101691.84;5129639;27;20021;-35
2022/10/31 02:49:57;;;;;;;;;;;;;;;21.34;55.82;101682.44;5133103;27;20010;-36
2022/10/31 02:52:25;;;;;;;;;;;;;;;21.34;55.73;101682.44;5132790;27;20021;-35
2022/10/31 02:54:51;;;;;;;;;;;;;;;21.33;55.75;101676.06;5143113;27;20325;-35
2022/10/31 02:57:18;;;;;;;;;;;;;;;21.33;55.73;101670.53;5139587;27;19924;-35
2022/10/31 02:59:46;;;;;;;;;;;;;;;21.34;55.66;101669.41;5130687;27;20402;-36
2022/10/31 03:02:29;;;;;;;;;;;;;;;21.33;55.68;101676.06;5119941;27;19974;-36
2022/10/31 03:05:00;;;;;;;;;;;;;;;21.34;55.80;101674.13;5132013;27;19927;-35
2022/10/31 03:07:29;;;;;;;;;;;;;;;21.33;55.79;101689.94;5135339;27;20366;-36
2022/10/31 03:10:04;;;;;;;;;;;;;;;21.33;55.80;101678.84;5130071;27;19966;-35
2022/10/31 03:12:33;;;;;;;;;;;;;;;21.33;55.76;101680.75;5123901;27;19959;-35
2022/10/31 03:15:17;;;;;;;;;;;;;;;21.34;55.75;101679.69;5129517;27;19983;-35
2022/10/31 03:18:03;;;;;;;;;;;;;;;21.33;55.81;101678.84;5130218;27;20018;-35
2022/10/31 03:20:33;;;;;;;;;;;;;;;21.33;55.80;101673.31;5116870;27;19971;-35
2022/10/31 03:22:59;;;;;;;;;;;;;;;21.34;55.76;101671.38;5132960;27;19942;-35
2022/10/31 03:25:24;;;;;;;;;;;;;;;21.34;55.80;101668.59;5133879;27;19923;-35
2022/10/31 03:27:50;;;;;;;;;;;;;;;21.34;55.68;101669.41;5133068;27;19927;-36
2022/10/31 03:30:16;;;;;;;;;;;;;;;21.34;55.68;101671.38;5133470;27;19924;-35
2022/10/31 03:32:47;;;;;;;;;;;;;;;21.34;55.77;101666.66;5122142;27;20016;-35
2022/10/31 03:35:13;;;;;;;;;;;;;;;21.35;55.76;101678.56;5131315;27;20026;-35
2022/10/31 03:37:38;;;;;;;;;;;;;;;21.34;55.74;101676.91;5128618;27;20299;-35
2022/10/31 03:40:04;;;;;;;;;;;;;;;21.35;55.73;101675.78;5127486;27;19931;-35
2022/10/31 03:42:31;;;;;;;;;;;;;;;21.34;55.77;101661.09;5129926;27;19936;-35
2022/10/31 03:44:58;;;;;;;;;;;;;;;21.33;55.74;101664.13;5131642;27;20014;-35
2022/10/31 03:47:23;;;;;;;;;;;;;;;21.33;55.74;101667.78;5129928;27;20382;-36
2022/10/31 03:49:49;;;;;;;;;;;;;;;21.34;55.66;101666.66;5129265;27;19927;-35
2022/10/31 03:52:34;;;;;;;;;;;;;;;21.33;55.81;101672.44;5133364;27;20492;-36
2022/10/31 03:55:09;;;;;;;;;;;;;;;21.33;55.69;101672.44;5116363;27;19976;-36
2022/10/31 03:57:54;;;;;;;;;;;;;;;21.33;55.81;101666.91;5117081;28;19966;-35
2022/10/31 04:00:20;;;;;;;;;;;;;;;21.33;55.90;101658.59;5116928;27;20407;-35
2022/10/31 04:02:47;;;;;;;;;;;;;;;21.33;55.73;101662.22;5131000;27;19976;-36
2022/10/31 04:05:13;;;;;;;;;;;;;;;21.34;55.84;101665.81;5116955;27;19930;-36
2022/10/31 04:07:39;;;;;;;;;;;;;;;21.33;55.74;101664.13;5130838;27;19924;-35
2022/10/31 04:10:06;;;;;;;;;;;;;;;21.33;55.85;101670.53;5127090;27;19951;-35
2022/10/31 04:12:31;;;;;;;;;;;;;;;21.33;55.82;101669.69;5131421;27;19951;-36
2022/10/31 04:14:57;;;;;;;;;;;;;;;21.34;55.73;101671.38;5127713;27;19976;-36
2022/10/31 04:17:23;;;;;;;;;;;;;;;21.33;55.73;101667.78;5130962;27;19931;-36
2022/10/31 04:19:48;;;;;;;;;;;;;;;21.33;55.77;101676.06;5116823;28;19968;-35
2022/10/31 04:22:14;;;;;;;;;;;;;;;21.33;55.65;101673.31;5131603;27;19946;-35
2022/10/31 04:24:39;;;;;;;;;;;;;;;21.33;55.74;101669.69;5134763;27;19923;-35
2022/10/31 04:27:05;;;;;;;;;;;;;;;21.34;55.76;101674.13;5122624;27;19973;-35
2022/10/31 04:29:30;;;;;;;;;;;;;;;21.33;55.80;101670.53;5133995;27;19935;-35
2022/10/31 04:31:56;;;;;;;;;;;;;;;21.34;55.81;101668.59;5135048;27;20322;-35
2022/10/31 04:34:22;;;;;;;;;;;;;;;21.34;55.81;101668.59;5128511;27;19927;-35
2022/10/31 04:36:47;;;;;;;;;;;;;;;21.34;55.79;101666.66;5129953;27;20379;-36
2022/10/31 04:39:13;;;;;;;;;;;;;;;21.33;55.75;101664.13;5129303;27;19938;-35
2022/10/31 04:41:38;;;;;;;;;;;;;;;21.33;55.79;101655.81;5128482;27;19930;-35
2022/10/31 04:44:04;;;;;;;;;;;;;;;21.34;55.76;101650.03;5130711;27;19936;-36
2022/10/31 04:46:29;;;;;;;;;;;;;;;21.33;55.64;101650.28;5128517;27;19931;-35
2022/10/31 04:48:55;;;;;;;;;;;;;;;21.33;55.84;101656.69;5127725;27;20302;-35
2022/10/31 04:51:21;;;;;;;;;;;;;;;21.34;55.81;101657.50;5132942;27;19931;-35
2022/10/31 04:53:46;;;;;;;;;;;;;;;21.33;55.75;101650.28;5131786;27;19930;-35
2022/10/31 04:56:12;;;;;;;;;;;;;;;21.33;55.81;101647.50;5129937;27;19930;-36
2022/10/31 04:58:37;;;;;;;;;;;;;;;21.34;55.75;101654.75;5129993;27;20290;-35
2022/10/31 05:01:03;;;;;;;;;;;;;;;21.33;55.52;101653.91;5133063;27;20205;-35
2022/10/31 05:03:29;;;;;;;;;;;;;;;21.33;55.71;101648.38;5131932;27;19923;-36
2022/10/31 05:05:54;;;;;;;;;;;;;;;21.34;55.80;101649.19;5128878;27;19973;-36
2022/10/31 05:08:20;;;;;;;;;;;;;;;21.34;55.72;101641.72;5129047;27;19923;-35
2022/10/31 05:10:45;;;;;;;;;;;;;;;21.34;55.76;101641.72;5128972;27;20368;-35
2022/10/31 05:13:11;;;;;;;;;;;;;;;21.33;55.69;101637.28;5130163;27;19928;-35
2022/10/31 05:15:36;;;;;;;;;;;;;;;21.33;55.76;101633.66;5129177;27;19923;-35
2022/10/31 05:18:02;;;;;;;;;;;;;;;21.34;55.71;101632.56;5130471;27;19927;-35
2022/10/31 05:20:29;;;;;;;;;;;;;;;21.34;55.71;101629.81;5128059;27;19931;-35
2022/10/31 05:22:55;;;;;;;;;;;;;;;21.33;55.74;101628.97;5135792;27;19923;-35
2022/10/31 05:25:21;;;;;;;;;;;;;;;21.34;55.68;101646.44;5118041;27;19967;-35
2022/10/31 05:27:48;;;;;;;;;;;;;;;21.34;55.77;101640.88;5130939;27;20010;-35
2022/10/31 05:30:16;;;;;;;;;;;;;;;21.33;55.67;101636.44;5132415;27;19973;-35
2022/10/31 05:32:42;;;;;;;;;;;;;;;21.34;55.68;101635.34;5118741;27;20470;-35
2022/10/31 05:35:08;;;;;;;;;;;;;;;21.33;55.77;101636.44;5110897;27;20415;-35
2022/10/31 05:37:35;;;;;;;;;;;;;;;21.33;55.80;101637.28;5128847;27;20345;-35
2022/10/31 05:40:01;;;;;;;;;;;;;;;21.32;55.72;101638.38;5127776;27;20380;-35
2022/10/31 05:42:33;;;;;;;;;;;;;;;21.34;55.71;101641.72;5116096;27;19938;-35
2022/10/31 05:44:59;;;;;;;;;;;;;;;21.34;55.74;101629.81;5118559;27;19923;-36
2022/10/31 05:47:24;;;;;;;;;;;;;;;21.34;55.74;101633.41;5129819;27;19931;-35
2022/10/31 05:49:50;;;;;;;;;;;;;;;21.33;55.63;101628.97;5117712;27;19928;-35
2022/10/31 05:52:15;;;;;;;;;;;;;;;21.34;55.79;101629.81;5127330;27;19931;-35
2022/10/31 05:54:41;;;;;;;;;;;;;;;21.35;55.80;101631.47;5112297;27;20014;-35
2022/10/31 05:57:06;;;;;;;;;;;;;;;21.34;55.68;101621.50;5131459;27;19923;-35
2022/10/31 05:59:32;;;;;;;;;;;;;;;21.34;55.72;101625.09;5129782;27;19924;-35
2022/10/31 06:01:58;;;;;;;;;;;;;;;21.33;55.74;101619.81;5125370;27;20499;-36
2022/10/31 06:04:23;;;;;;;;;;;;;;;21.34;55.73;101629.81;5126511;27;19927;-35
2022/10/31 06:06:49;;;;;;;;;;;;;;;21.34;55.97;101629.81;5126923;27;19927;-35
2022/10/31 06:09:14;;;;;;;;;;;;;;;21.33;55.71;101623.44;5128567;27;19930;-35
2022/10/31 06:11:40;;;;;;;;;;;;;;;21.33;55.67;101628.97;5126393;27;20303;-37
2022/10/31 06:14:06;;;;;;;;;;;;;;;21.33;55.64;101631.75;5124388;27;19935;-36
2022/10/31 06:16:31;;;;;;;;;;;;;;;21.34;55.66;101624.25;5112882;27;20018;-36
2022/10/31 06:18:57;;;;;;;;;;;;;;;21.33;55.69;101622.59;5128024;27;19931;-35
2022/10/31 06:21:22;;;;;;;;;;;;;;;21.32;55.85;101618.97;5129154;27;19923;-35
2022/10/31 06:23:48;;;;;;;;;;;;;;;21.33;55.71;101623.44;5130758;27;19923;-36
2022/10/31 06:26:13;;;;;;;;;;;;;;;21.33;55.77;101620.66;5126697;27;19931;-35
2022/10/31 06:28:39;;;;;;;;;;;;;;;21.33;55.74;101615.13;5129977;27;19951;-35
2022/10/31 06:31:04;;;;;;;;;;;;;;;21.33;55.73;101626.22;5127074;27;19946;-36
2022/10/31 06:33:30;;;;;;;;;;;;;;;21.34;55.74;101625.09;5133515;27;19952;-35
2022/10/31 06:35:55;;;;;;;;;;;;;;;21.34;55.90;101627.03;5135215;27;19923;-35
2022/10/31 06:38:21;;;;;;;;;;;;;;;21.33;55.69;101625.34;5126925;27;19931;-36
2022/10/31 06:40:47;;;;;;;;;;;;;;;21.33;55.81;101625.34;5127300;27;19939;-38
2022/10/31 06:43:14;;;;;;;;;;;;;;;21.33;55.65;101626.22;5130193;27;19942;-38
2022/10/31 06:45:39;;;;;;;;;;;;;;;21.33;55.65;101623.44;5122580;27;19993;-38
2022/10/31 06:48:05;;;;;;;;;;;;;;;21.24;56.92;101625.91;5122702;27;20438;-39
2022/10/31 06:50:47;;;;;;;;;;;;;;;21.18;57.48;101624.22;5127704;27;19932;-38
2022/10/31 06:53:14;;;;;;;;;;;;;;;21.18;57.88;101627.00;5124406;27;19935;-38
2022/10/31 06:55:39;;;;;;;;;;;;;;;21.28;57.10;101628.94;5103775;27;20010;-37
2022/10/31 06:58:05;;;;;;;;;;;;;;;21.32;56.92;101630.06;5101607;27;20021;-39
2022/10/31 07:00:31;;;;;;;;;;;;;;;21.34;56.71;101633.41;5102588;27;20059;-37
2022/10/31 07:02:58;;;;;;;;;;;;;;;21.34;56.54;101627.88;5091763;27;20046;-41
2022/10/31 07:05:24;;;;;;;;;;;;;;;21.35;56.58;101629.53;5101549;27;20359;-38
2022/10/31 07:07:53;;;;;;;;;;;;;;;21.35;56.63;101629.53;5123252;27;19943;-37
2022/10/31 07:10:19;;;;;;;;;;;;;;;21.37;56.62;101632.00;5121973;27;20396;-38
2022/10/31 07:12:44;;;;;;;;;;;;;;;21.37;56.53;101641.13;5125922;27;19931;-38
2022/10/31 07:15:10;;;;;;;;;;;;;;;21.37;56.61;101643.91;5126620;27;19992;-38
2022/10/31 07:17:35;;;;;;;;;;;;;;;21.38;56.46;101645.59;5125308;27;20212;-37
2022/10/31 07:20:01;;;;;;;;;;;;;;;21.38;56.52;101640.06;5126794;27;19939;-37
2022/10/31 07:22:34;;;;;;;;;;;;;;;21.39;56.57;101641.72;5131358;27;19927;-37
2022/10/31 07:24:59;;;;;;;;;;;;;;;21.39;56.61;101644.47;5130233;27;19963;-37
2022/10/31 07:27:25;;;;;;;;;;;;;;;21.40;56.46;101637.00;5128524;27;19923;-38
2022/10/31 07:29:50;;;;;;;;;;;;;;;21.40;56.37;101637.81;5129886;27;19977;-38
2022/10/31 07:32:16;;;;;;;;;;;;;;;21.43;56.44;101644.75;5130868;27;19930;-38
2022/10/31 07:34:41;;;;;;;;;;;;;;;21.43;56.34;101647.53;5127878;27;19927;-39
2022/10/31 07:37:12;;;;;;;;;;;;;;;21.43;56.51;101642.81;5117976;27;19927;-38
2022/10/31 07:39:38;;;;;;;;;;;;;;;21.44;56.35;101649.19;5127708;27;19932;-38
2022/10/31 07:42:03;;;;;;;;;;;;;;;21.44;56.05;101650.00;5117968;27;20340;-38
2022/10/31 07:44:29;;;;;;;;;;;;;;;21.45;56.40;101656.38;5111840;27;19931;-38
2022/10/31 07:46:54;;;;;;;;;;;;;;;21.44;56.07;101655.56;5113730;27;19934;-38
2022/10/31 07:49:20;;;;;;;;;;;;;;;21.45;56.06;101656.38;5116834;27;19927;-38
2022/10/31 07:51:46;;;;;;;;;;;;;;;21.45;56.22;101656.38;5124508;27;19923;-38
2022/10/31 07:54:12;;;;;;;;;;;;;;;21.47;55.94;101648.63;5122557;27;19932;-38
2022/10/31 07:56:37;;;;;;;;;;;;;;;21.47;55.83;101645.88;5126602;27;20352;-38
2022/10/31 07:59:03;;;;;;;;;;;;;;;21.46;55.83;101647.81;5119228;27;19932;-38
2022/10/31 08:01:28;;;;;;;;;;;;;;;21.45;55.86;101643.34;5117824;27;19922;-38
2022/10/31 08:03:54;;;;;;;;;;;;;;;21.46;55.61;101645.03;5114635;27;19924;-39
2022/10/31 08:06:19;;;;;;;;;;;;;;;21.48;55.19;101650.28;5108584;27;19924;-38
2022/10/31 08:08:45;;;;;;;;;;;;;;;21.48;55.36;101641.97;5105659;27;20379;-37
2022/10/31 08:11:10;;;;;;;;;;;;;;;21.46;55.35;101641.41;5103351;27;19932;-38
2022/10/31 08:13:36;;;;;;;;;;;;;;;21.46;55.80;101644.19;5114649;27;19980;-37
2022/10/31 08:16:04;;;;;;;;;;;;;;;21.45;55.20;101640.56;5122472;27;19927;-38
2022/10/31 08:18:29;;;;;;;;;;;;;;;21.45;55.15;101646.13;5120634;27;19935;-37
2022/10/31 08:20:55;;;;;;;;;;;;;;;21.46;54.60;101646.94;5117101;27;19931;-38
2022/10/31 08:23:20;;;;;;;;;;;;;;;21.45;55.33;101648.06;5120852;27;20371;-37
2022/10/31 08:25:47;;;;;;;;;;;;;;;21.46;55.17;101649.72;5113641;27;19923;-38
2022/10/31 08:28:13;;;;;;;;;;;;;;;21.46;55.11;101647.81;5118778;27;20403;-38
2022/10/31 08:30:38;;;;;;;;;;;;;;;21.46;55.14;101642.25;5126016;27;19939;-38
2022/10/31 08:33:12;;;;;;;;;;;;;;;21.45;54.86;101643.34;5102705;27;19949;-38
2022/10/31 08:35:38;;;;;;;;;;;;;;;21.45;54.77;101631.44;5121747;27;19927;-38
2022/10/31 08:38:04;;;;;;;;;;;;;;;21.46;54.25;101635.88;5118888;27;19935;-38
2022/10/31 08:40:31;;;;;;;;;;;;;;;21.47;54.53;101637.56;5096310;27;20707;-38
2022/10/31 08:42:58;;;;;;;;;;;;;;;21.48;54.35;101641.97;5104462;27;20011;-38
2022/10/31 08:45:23;;;;;;;;;;;;;;;21.46;54.21;101631.19;5116384;27;19966;-38
2022/10/31 08:47:49;;;;;;;;;;;;;;;21.46;54.09;101633.09;5117008;27;19931;-38
2022/10/31 08:50:14;;;;;;;;;;;;;;;21.45;54.35;101626.72;5122109;27;20375;-38
2022/10/31 08:52:40;;;;;;;;;;;;;;;21.46;54.24;101627.53;5123354;27;19943;-37
2022/10/31 08:55:26;;;;;;;;;;;;;;;21.45;55.27;101621.19;5114721;27;19930;-38
2022/10/31 08:57:58;;;;;;;;;;;;;;;21.45;55.10;101618.41;5117106;27;19932;-38
2022/10/31 09:00:25;;;;;;;;;;;;;;;21.45;54.61;101609.28;5116760;27;19961;-38
2022/10/31 09:02:58;;;;;;;;;;;;;;;21.45;54.97;101601.78;5108043;27;19923;-38
2022/10/31 09:05:23;;;;;;;;;;;;;;;21.46;55.17;101613.69;5095895;27;19931;-38
2022/10/31 09:07:49;;;;;;;;;;;;;;;21.47;55.10;101610.66;5114797;27;19927;-38
2022/10/31 09:10:14;;;;;;;;;;;;;;;21.49;55.31;101604.81;5109239;27;19931;-39
2022/10/31 09:12:41;;;;;;;;;;;;;;;21.48;55.57;101601.22;5116013;27;21599;-38
2022/10/31 09:15:06;;;;;;;;;;;;;;;21.48;55.34;101595.69;5119343;27;20030;-38
2022/10/31 09:17:32;;;;;;;;;;;;;;;21.47;55.55;101602.34;5108393;27;20296;-38
2022/10/31 09:19:58;;;;;;;;;;;;;;;21.46;55.76;101600.69;5116932;27;19931;-38
2022/10/31 09:22:23;;;;;;;;;;;;;;;21.47;55.36;101588.50;5105405;27;19932;-38
2022/10/31 09:24:49;;;;;;;;;;;;;;;21.47;55.51;101587.66;5109616;27;19963;-38
2022/10/31 09:27:14;;;;;;;;;;;;;;;21.49;55.47;101591.81;5109837;27;19928;-38
2022/10/31 09:29:40;;;;;;;;;;;;;;;21.47;55.47;101588.50;5122635;27;19923;-38
2022/10/31 09:32:05;;;;;;;;;;;;;;;21.49;55.09;101585.44;5120098;27;19939;-38
2022/10/31 09:34:31;;;;;;;;;;;;;;;21.50;54.55;101579.63;5112256;27;20451;-38
2022/10/31 09:36:56;;;;;;;;;;;;;;;21.53;54.64;101576.28;5114662;27;19928;-38
2022/10/31 09:39:22;;;;;;;;;;;;;;;21.51;54.63;101564.66;5112754;27;19928;-38
2022/10/31 09:42:01;;;;;;;;;;;;;;;21.51;54.59;101566.59;5111309;27;20165;-38
2022/10/31 09:44:47;;;;;;;;;;;;;;;21.50;54.57;101554.69;5100348;27;20371;-38
2022/10/31 09:47:17;;;;;;;;;;;;;;;21.50;55.43;101548.28;5112101;27;20008;-38
2022/10/31 09:49:50;;;;;;;;;;;;;;;21.50;55.42;101548.28;5119700;27;19963;-38
2022/10/31 09:52:20;;;;;;;;;;;;;;;21.50;55.49;101553.81;5122337;27;19946;-38
2022/10/31 09:54:48;;;;;;;;;;;;;;;21.51;54.72;101541.66;5123501;27;20022;-38
2022/10/31 09:57:15;;;;;;;;;;;;;;;21.53;54.53;101548.56;5118978;27;20443;-38
2022/10/31 09:59:41;;;;;;;;;;;;;;;21.52;54.74;101552.44;5100572;27;19930;-38
2022/10/31 10:02:26;;;;;;;;;;;;;;;21.54;54.72;101549.38;5123944;27;19954;-38
2022/10/31 10:04:56;;;;;;;;;;;;;;;21.52;55.17;101538.59;5105827;28;20434;-38
2022/10/31 10:07:24;;;;;;;;;;;;;;;21.52;54.79;101538.59;5103892;28;20006;-39
2022/10/31 10:09:50;;;;;;;;;;;;;;;21.54;54.53;101536.38;5103952;28;19924;-38
2022/10/31 10:12:18;;;;;;;;;;;;;;;21.53;55.04;101523.63;5119607;27;20382;-38
2022/10/31 10:15:04;;;;;;;;;;;;;;;21.54;54.75;101525.28;5123294;27;19939;-38
2022/10/31 10:17:34;;;;;;;;;;;;;;;21.57;54.79;101517.50;5106717;28;20032;-38
2022/10/31 10:20:21;;;;;;;;;;;;;;;21.56;55.05;101516.69;5116724;27;19981;-38
2022/10/31 10:22:50;;;;;;;;;;;;;;;21.56;55.25;101510.31;5104150;28;19931;-38
2022/10/31 10:25:35;;;;;;;;;;;;;;;21.55;54.73;101526.13;5115270;27;20058;-38
2022/10/31 10:28:12;;;;;;;;;;;;;;;21.60;55.10;101511.41;5105349;28;19931;-38
2022/10/31 10:30:46;;;;;;;;;;;;;;;21.63;54.57;101513.59;5127389;27;19974;-38
2022/10/31 10:33:16;;;;;;;;;;;;;;;21.64;54.46;101505.03;5119888;27;20014;-38
2022/10/31 10:35:43;;;;;;;;;;;;;;;21.63;54.54;101508.06;5121290;27;20445;-38
2022/10/31 10:38:11;;;;;;;;;;;;;;;21.61;54.48;101500.03;5119617;27;20018;-39
2022/10/31 10:40:37;;;;;;;;;;;;;;;21.61;54.57;101497.25;5122211;27;19958;-38
2022/10/31 10:43:23;;;;;;;;;;;;;;;21.62;54.87;101492.53;5099535;27;20121;-38
2022/10/31 10:48:41;;;;;;;;;;;;;;;21.62;54.87;101476.75;5110788;27;19970;-38
2022/10/31 10:51:06;;;;;;;;;;;;;;;21.62;54.71;101459.28;5122661;27;20014;-38
2022/10/31 10:54:02;;;;;;;;;;;;;;;21.61;54.80;101461.22;5124204;28;20182;-38
2022/10/31 10:56:45;;;;;;;;;;;;;;;21.62;54.73;101459.28;5122246;27;19945;-38
2022/10/31 10:59:12;;;;;;;;;;;;;;;21.61;54.92;101457.63;5123361;27;20365;-38
2022/10/31 11:01:38;;;;;;;;;;;;;;;21.60;55.24;101465.13;5120801;27;19974;-38
2022/10/31 11:04:05;;;;;;;;;;;;;;;21.61;54.87;101461.22;5128144;27;20015;-38
2022/10/31 11:06:30;;;;;;;;;;;;;;;21.62;55.17;101459.28;5102111;27;19955;-38
2022/10/31 11:08:56;;;;;;;;;;;;;;;21.62;54.86;101462.88;5126906;27;19954;-38
2022/10/31 11:11:26;;;;;;;;;;;;;;;21.63;55.17;101461.78;5121647;27;20491;-38
2022/10/31 11:13:53;;;;;;;;;;;;;;;21.61;55.10;101447.38;5100021;28;20051;-38
2022/10/31 11:19:12;;;;;;;;;;;;;;;21.61;55.20;101439.06;5146538;27;20394;-36
2022/10/31 11:21:38;;;;;;;;;;;;;;;21.62;54.87;101428.78;5125928;27;20023;-36
2022/10/31 11:24:04;;;;;;;;;;;;;;;21.63;55.15;101424.91;5145216;27;19923;-36
2022/10/31 11:26:29;;;;;;;;;;;;;;;21.63;55.03;101424.91;5142093;27;20359;-36
2022/10/31 11:28:55;;;;;;;;;;;;;;;21.64;54.76;101427.41;5144985;27;19934;-36
2022/10/31 11:31:21;;;;;;;;;;;;;;;21.64;55.09;101429.34;5152508;27;19954;-35
2022/10/31 11:33:47;;;;;;;;;;;;;;;21.63;54.56;101428.53;5151294;27;20374;-35
2022/10/31 11:36:33;;;;;;;;;;;;;;;21.64;54.79;101426.59;5147418;27;19923;-36
2022/10/31 11:38:59;;;;;;;;;;;;;;;21.64;54.60;101429.34;5132103;27;19927;-36
2022/10/31 11:41:27;;;;;;;;;;;;;;;21.63;54.83;101414.66;5148390;27;19954;-35
2022/10/31 11:43:56;;;;;;;;;;;;;;;21.65;54.79;101414.38;5134642;27;20382;-38
2022/10/31 11:46:41;;;;;;;;;;;;;;;21.65;55.03;101394.97;5147174;27;20084;-39
2022/10/31 11:49:15;;;;;;;;;;;;;;;21.65;54.67;101394.97;5133297;27;19927;-38
2022/10/31 11:51:41;;;;;;;;;;;;;;;21.64;55.15;101380.28;5129341;27;19973;-38
2022/10/31 11:54:15;;;;;;;;;;;;;;;21.64;54.87;101380.28;5146481;27;20520;-39
2022/10/31 11:56:41;;;;;;;;;;;;;;;21.63;55.04;101375.00;5150703;27;20013;-38
2022/10/31 11:59:23;;;;;;;;;;;;;;;21.64;55.11;101371.16;5134267;27;19935;-38
2022/10/31 12:01:49;;;;;;;;;;;;;;;21.63;55.09;101369.47;5149210;27;19952;-38
2022/10/31 12:04:16;;;;;;;;;;;;;;;21.64;54.64;101371.97;5123559;27;19931;-39
2022/10/31 12:06:45;;;;;;;;;;;;;;;21.65;54.64;101365.31;5130390;27;19959;-38
2022/10/31 12:09:31;;;;;;;;;;;;;;;21.51;53.68;101365.13;5149475;27;20430;-38
2022/10/31 12:12:16;;;;;;;;;;;;;;;21.60;54.64;101353.44;5129712;27;20415;-38
2022/10/31 12:14:46;;;;;;;;;;;;;;;21.65;54.66;101353.41;5123665;27;20064;-38
2022/10/31 12:19:59;;;;;;;;;;;;;;;21.63;55.08;101323.19;5153278;27;19942;-36
2022/10/31 12:22:30;;;;;;;;;;;;;;;21.63;55.05;101325.13;5149005;27;19965;-36
2022/10/31 12:25:00;;;;;;;;;;;;;;;21.63;54.83;101312.13;5133752;27;20010;-36
2022/10/31 12:27:45;;;;;;;;;;;;;;;21.65;54.56;101309.03;5136483;27;20163;-35
2022/10/31 12:30:28;;;;;;;;;;;;;;;21.66;54.68;101319.00;5124979;27;20014;-38
2022/10/31 12:33:13;;;;;;;;;;;;;;;21.65;54.93;101307.09;5142048;27;19981;-39
2022/10/31 12:38:41;;;;;;;;;;;;;;;21.67;54.44;101306.81;5141387;27;19933;-36
2022/10/31 12:41:24;;;;;;;;;;;;;;;21.67;54.68;101298.47;5114897;27;20469;-35
2022/10/31 12:44:02;;;;;;;;;;;;;;;21.67;54.93;101293.75;5137746;27;20255;-36
2022/10/31 12:49:09;;;;;;;;;;;;;;;21.67;55.04;101279.91;5143966;27;19926;-36
2022/10/31 12:51:46;;;;;;;;;;;;;;;21.68;54.32;101283.53;5134197;27;19931;-35
2022/10/31 12:54:16;;;;;;;;;;;;;;;21.70;54.49;101262.69;5141003;27;19958;-35
2022/10/31 12:57:02;;;;;;;;;;;;;;;21.73;54.19;101261.31;5138876;27;19958;-36